createdAt,value
2018-01-25T00:00:19.199Z,62.80
2018-01-25T00:02:46.736Z,62.90
2018-01-25T00:05:14.276Z,63.10
2018-01-25T00:07:41.819Z,63.10
2018-01-25T00:10:09.357Z,63.10
2018-01-25T00:12:36.918Z,63.20
2018-01-25T00:15:04.449Z,63.20
2018-01-25T00:17:31.988Z,63.10
2018-01-25T00:19:59.536Z,63.30
2018-01-25T00:22:31.816Z,63.70
2018-01-25T00:24:59.369Z,63.70
2018-01-25T00:27:26.894Z,63.60
2018-01-25T00:29:54.406Z,64.00
2018-01-25T00:32:21.984Z,63.80
2018-01-25T00:34:50.187Z,63.80
2018-01-25T00:37:18.637Z,63.40
2018-01-25T00:39:46.160Z,63.50
2018-01-25T00:42:14.498Z,62.90
2018-01-25T00:44:42.807Z,62.80
2018-01-25T00:47:10.346Z,62.80
2018-01-25T00:49:37.916Z,63.00
2018-01-25T00:52:05.602Z,63.20
2018-01-25T00:54:33.883Z,62.70
2018-01-25T00:57:01.494Z,62.80
2018-01-25T00:59:29.032Z,62.40
2018-01-25T01:01:56.594Z,62.50
2018-01-25T01:04:24.128Z,62.40
2018-01-25T01:06:52.473Z,62.00
2018-01-25T01:09:20.270Z,62.00
2018-01-25T01:11:48.585Z,61.70
2018-01-25T01:14:16.101Z,61.70
2018-01-25T01:16:43.639Z,61.60
2018-01-25T01:19:11.225Z,61.30
2018-01-25T01:21:39.566Z,61.00
2018-01-25T01:24:07.099Z,61.00
2018-01-25T01:26:34.620Z,61.20
2018-01-25T01:29:02.199Z,61.00
2018-01-25T01:31:30.557Z,61.20
2018-01-25T01:33:59.005Z,61.00
2018-01-25T01:36:27.352Z,61.50
2018-01-25T01:38:55.057Z,60.80
2018-01-25T01:41:22.616Z,60.70
2018-01-25T01:43:50.603Z,60.80
2018-01-25T01:46:18.906Z,60.90
2018-01-25T01:48:46.432Z,60.90
2018-01-25T01:51:14.904Z,61.00
2018-01-25T01:53:42.443Z,61.10
2018-01-25T01:56:09.986Z,61.10
2018-01-25T01:58:39.025Z,61.60
2018-01-25T02:01:07.334Z,61.40
2018-01-25T02:03:35.660Z,62.10
2018-01-25T02:06:03.175Z,62.20
2018-01-25T02:08:30.702Z,62.10
2018-01-25T02:10:58.219Z,61.60
2018-01-25T02:13:25.949Z,61.90
2018-01-25T02:15:53.542Z,61.80
2018-01-25T02:18:21.195Z,61.80
2018-01-25T02:20:50.226Z,61.40
2018-01-25T02:23:17.758Z,61.20
2018-01-25T02:25:45.308Z,60.50
2018-01-25T02:28:12.984Z,61.00
2018-01-25T02:30:41.293Z,60.00
2018-01-25T02:33:08.858Z,59.90
2018-01-25T02:35:37.164Z,60.50
2018-01-25T02:38:04.713Z,60.00
2018-01-25T02:40:32.257Z,59.40
2018-01-25T02:42:59.784Z,59.10
2018-01-25T02:45:28.101Z,58.90
2018-01-25T02:47:56.639Z,59.40
2018-01-25T02:50:25.335Z,59.10
2018-01-25T02:52:52.849Z,59.10
2018-01-25T02:55:21.225Z,59.20
2018-01-25T02:57:48.854Z,59.20
2018-01-25T03:00:17.334Z,59.00
2018-01-25T03:02:44.865Z,59.00
2018-01-25T03:05:12.426Z,58.90
2018-01-25T03:07:39.961Z,58.90
2018-01-25T03:10:07.513Z,59.40
2018-01-25T03:12:35.061Z,59.40
2018-01-25T03:15:02.602Z,59.60
2018-01-25T03:17:30.174Z,59.40
2018-01-25T03:19:58.464Z,59.50
2018-01-25T03:22:26.163Z,59.50
2018-01-25T03:24:53.701Z,59.20
2018-01-25T03:27:21.225Z,58.90
2018-01-25T03:29:50.059Z,58.30
2018-01-25T03:32:17.579Z,58.30
2018-01-25T03:34:45.090Z,57.60
2018-01-25T03:37:12.677Z,57.90
2018-01-25T03:39:40.204Z,57.60
2018-01-25T03:42:07.788Z,57.40
2018-01-25T03:44:36.080Z,56.60
2018-01-25T03:47:03.604Z,56.60
2018-01-25T03:49:31.244Z,56.30
2018-01-25T03:51:58.784Z,56.70
2018-01-25T03:54:26.542Z,56.90
2018-01-25T03:56:54.092Z,56.20
2018-01-25T03:59:21.624Z,56.20
2018-01-25T04:01:49.397Z,55.90
2018-01-25T04:04:16.965Z,55.90
2018-01-25T04:06:44.559Z,55.90
2018-01-25T04:09:12.915Z,56.00
2018-01-25T04:11:40.460Z,56.00
2018-01-25T04:14:08.800Z,56.70
2018-01-25T04:16:36.369Z,56.70
2018-01-25T04:19:04.697Z,55.60
2018-01-25T04:21:32.229Z,55.60
2018-01-25T04:23:59.826Z,55.90
2018-01-25T04:26:28.129Z,55.70
2018-01-25T04:28:55.684Z,55.70
2018-01-25T04:31:23.978Z,55.80
2018-01-25T04:33:51.558Z,55.80
2018-01-25T04:36:20.113Z,55.50
2018-01-25T04:38:48.381Z,55.30
2018-01-25T04:41:16.740Z,55.50
2018-01-25T04:43:45.076Z,55.70
2018-01-25T04:46:13.433Z,55.60
2018-01-25T04:48:41.743Z,55.70
2018-01-25T04:51:09.263Z,55.70
2018-01-25T04:53:36.821Z,55.90
2018-01-25T04:56:04.423Z,56.10
2018-01-25T04:58:32.843Z,55.80
2018-01-25T05:01:00.382Z,55.80
2018-01-25T05:03:27.955Z,55.90
2018-01-25T05:05:56.694Z,55.70
2018-01-25T05:08:24.286Z,55.70
2018-01-25T05:10:51.826Z,56.00
2018-01-25T05:13:19.375Z,56.00
2018-01-25T05:15:46.948Z,56.20
2018-01-25T05:18:14.531Z,55.90
2018-01-25T05:20:42.071Z,56.10
2018-01-25T05:23:10.382Z,55.40
2018-01-25T05:25:37.944Z,55.50
2018-01-25T05:28:06.243Z,54.80
2018-01-25T05:30:33.753Z,54.80
2018-01-25T05:33:02.084Z,55.00
2018-01-25T05:35:30.385Z,55.40
2018-01-25T05:37:58.148Z,54.90
2018-01-25T05:40:26.606Z,54.90
2018-01-25T05:42:54.147Z,54.90
2018-01-25T05:45:21.691Z,55.30
2018-01-25T05:47:49.341Z,55.60
2018-01-25T05:50:16.882Z,55.80
2018-01-25T05:52:44.415Z,55.50
2018-01-25T05:55:12.008Z,55.60
2018-01-25T05:57:39.523Z,56.50
2018-01-25T06:00:07.093Z,55.90
2018-01-25T06:02:35.506Z,56.30
2018-01-25T06:05:03.113Z,56.30
2018-01-25T06:07:31.416Z,56.90
2018-01-25T06:09:59.720Z,56.70
2018-01-25T06:12:27.244Z,56.70
2018-01-25T06:15:09.032Z,56.60
2018-01-25T06:17:36.604Z,56.70
2018-01-25T06:20:05.829Z,57.60
2018-01-25T06:22:34.459Z,57.60
2018-01-25T06:25:02.203Z,57.50
2018-01-25T06:27:29.736Z,57.50
2018-01-25T06:29:57.345Z,57.70
2018-01-25T06:32:24.841Z,57.70
2018-01-25T06:34:53.165Z,57.70
2018-01-25T06:37:21.474Z,57.60
2018-01-25T06:39:49.002Z,57.60
2018-01-25T06:42:16.729Z,57.60
2018-01-25T06:44:44.305Z,57.80
2018-01-25T06:47:11.943Z,57.90
2018-01-25T06:49:39.518Z,57.80
2018-01-25T06:52:07.892Z,57.90
2018-01-25T06:54:35.633Z,57.90
2018-01-25T06:57:03.259Z,57.80
2018-01-25T06:59:31.071Z,57.90
2018-01-25T07:01:59.079Z,57.90
2018-01-25T07:04:27.462Z,57.50
2018-01-25T07:06:55.015Z,57.60
2018-01-25T07:09:23.412Z,58.00
2018-01-25T07:11:50.988Z,58.00
2018-01-25T07:14:18.575Z,57.60
2018-01-25T07:16:46.116Z,57.60
2018-01-25T07:19:14.478Z,57.60
2018-01-25T07:21:42.072Z,57.70
2018-01-25T07:24:09.610Z,57.40
2018-01-25T07:26:37.918Z,57.10
2018-01-25T07:29:05.792Z,57.10
2018-01-25T07:31:33.529Z,57.00
2018-01-25T07:34:01.113Z,56.80
2018-01-25T07:36:28.711Z,56.40
2018-01-25T07:38:56.234Z,56.00
2018-01-25T07:41:23.759Z,56.30
2018-01-25T07:43:51.338Z,56.10
2018-01-25T07:46:18.888Z,56.10
2018-01-25T07:48:47.315Z,54.10
2018-01-25T07:51:26.659Z,54.10
2018-01-25T07:53:54.304Z,53.40
2018-01-25T07:56:21.843Z,53.10
2018-01-25T07:58:49.401Z,52.60
2018-01-25T08:01:16.948Z,52.50
2018-01-25T08:03:44.495Z,52.40
2018-01-25T08:06:12.089Z,51.80
2018-01-25T08:08:40.407Z,51.60
2018-01-25T08:11:07.937Z,51.50
2018-01-25T08:13:39.107Z,51.50
2018-01-25T08:16:12.320Z,51.40
2018-01-25T08:18:39.888Z,50.60
2018-01-25T08:21:07.433Z,49.70
2018-01-25T08:23:35.268Z,49.20
2018-01-25T08:26:02.996Z,49.20
2018-01-25T08:28:30.508Z,49.00
2018-01-25T08:30:58.047Z,48.60
2018-01-25T08:33:25.591Z,48.60
2018-01-25T08:35:53.105Z,48.40
2018-01-25T08:38:20.630Z,48.30
2018-01-25T08:40:48.218Z,47.20
2018-01-25T08:43:15.897Z,46.60
2018-01-25T08:45:43.463Z,45.80
2018-01-25T08:48:11.059Z,45.30
2018-01-25T08:50:38.615Z,45.10
2018-01-25T08:53:06.663Z,44.40
2018-01-25T08:55:35.686Z,43.80
2018-01-25T08:58:03.418Z,43.80
2018-01-25T09:00:30.974Z,43.30
2018-01-25T09:02:58.655Z,43.60
2018-01-25T09:05:26.262Z,43.20
2018-01-25T09:07:54.580Z,43.80
2018-01-25T09:10:22.167Z,43.80
2018-01-25T09:12:49.743Z,43.00
2018-01-25T09:15:17.282Z,42.10
2018-01-25T09:17:45.656Z,42.00
2018-01-25T09:20:13.292Z,42.00
2018-01-25T09:22:40.837Z,42.20
2018-01-25T09:25:08.745Z,42.30
2018-01-25T09:27:36.346Z,41.80
2018-01-25T09:30:03.935Z,41.90
2018-01-25T09:32:32.404Z,41.90
2018-01-25T09:35:00.720Z,41.40
2018-01-25T09:37:28.261Z,41.40
2018-01-25T09:39:55.855Z,41.00
2018-01-25T09:42:23.389Z,41.20
2018-01-25T09:44:51.284Z,40.60
2018-01-25T09:47:18.841Z,40.40
2018-01-25T09:49:46.722Z,39.60
2018-01-25T09:52:15.123Z,38.10
2018-01-25T09:54:42.685Z,38.10
2018-01-25T09:57:10.461Z,38.40
2018-01-25T09:59:38.014Z,38.60
2018-01-25T10:02:05.739Z,38.50
2018-01-25T10:04:33.304Z,38.20
2018-01-25T10:07:00.841Z,37.90
2018-01-25T10:09:28.512Z,37.40
2018-01-25T10:11:56.201Z,36.10
2018-01-25T10:14:23.736Z,35.70
2018-01-25T10:16:51.792Z,35.40
2018-01-25T10:19:19.346Z,34.80
2018-01-25T10:21:46.931Z,34.60
2018-01-25T10:24:14.505Z,34.90
2018-01-25T10:26:42.807Z,32.90
2018-01-25T10:29:10.368Z,32.80
2018-01-25T10:31:37.922Z,32.80
2018-01-25T10:34:05.464Z,32.70
2018-01-25T10:36:33.754Z,33.20
2018-01-25T10:39:01.539Z,33.10
2018-01-25T10:41:29.142Z,33.20
2018-01-25T10:43:57.469Z,32.90
2018-01-25T10:46:26.000Z,33.70
2018-01-25T10:48:53.604Z,33.80
2018-01-25T10:51:21.145Z,34.10
2018-01-25T10:53:48.729Z,33.30
2018-01-25T10:56:16.382Z,34.00
2018-01-25T10:58:43.934Z,33.40
2018-01-25T11:01:17.209Z,32.50
2018-01-25T11:03:44.727Z,31.20
2018-01-25T11:06:12.346Z,30.80
2018-01-25T11:08:39.940Z,31.30
2018-01-25T11:11:08.098Z,31.20
2018-01-25T11:13:35.645Z,30.50
2018-01-25T11:16:03.448Z,30.50
2018-01-25T11:18:30.991Z,31.00
2018-01-25T11:20:58.517Z,30.80
2018-01-25T11:23:26.094Z,30.30
2018-01-25T11:25:54.503Z,29.90
2018-01-25T11:28:22.181Z,29.90
2018-01-25T11:30:50.505Z,29.60
2018-01-25T11:33:18.805Z,29.00
2018-01-25T11:35:46.490Z,28.90
2018-01-25T11:38:14.825Z,29.10
2018-01-25T11:40:43.116Z,29.50
2018-01-25T11:43:10.634Z,29.50
2018-01-25T11:45:39.175Z,29.90
2018-01-25T11:48:06.748Z,30.50
2018-01-25T11:50:34.295Z,30.30
2018-01-25T11:53:02.174Z,30.80
2018-01-25T11:55:29.712Z,31.50
2018-01-25T11:57:57.277Z,31.10
2018-01-25T12:00:25.576Z,30.90
2018-01-25T12:02:53.201Z,30.80
2018-01-25T12:05:20.757Z,31.20
2018-01-25T12:07:48.353Z,30.10
2018-01-25T12:10:16.002Z,31.10
2018-01-25T12:12:43.564Z,31.10
2018-01-25T12:15:11.874Z,32.00
2018-01-25T12:17:40.365Z,31.90
2018-01-25T12:20:08.530Z,31.50
2018-01-25T12:22:36.182Z,31.80
2018-01-25T12:25:04.571Z,31.70
2018-01-25T12:27:32.386Z,31.70
2018-01-25T12:29:59.926Z,32.20
2018-01-25T12:32:28.233Z,31.60
2018-01-25T12:34:55.824Z,31.70
2018-01-25T12:37:23.370Z,31.70
2018-01-25T12:39:50.914Z,31.70
2018-01-25T12:42:18.622Z,31.30
2018-01-25T12:44:46.157Z,31.20
2018-01-25T12:47:13.772Z,30.90
2018-01-25T12:49:41.309Z,30.90
2018-01-25T12:52:09.004Z,30.90
2018-01-25T12:54:36.649Z,30.90
2018-01-25T12:57:04.237Z,31.60
2018-01-25T12:59:31.838Z,30.90
2018-01-25T13:01:59.430Z,31.40
2018-01-25T13:04:26.990Z,31.60
2018-01-25T13:06:54.529Z,30.60
2018-01-25T13:09:22.086Z,31.30
2018-01-25T13:11:53.955Z,30.20
2018-01-25T13:14:21.575Z,31.10
2018-01-25T13:16:49.141Z,31.30
2018-01-25T13:19:17.590Z,31.90
2018-01-25T13:21:45.117Z,31.90
2018-01-25T13:24:13.478Z,31.30
2018-01-25T13:26:41.973Z,31.70
2018-01-25T13:29:09.564Z,31.60
2018-01-25T13:31:37.155Z,31.70
2018-01-25T13:34:04.732Z,31.60
2018-01-25T13:36:33.118Z,31.60
2018-01-25T13:39:00.846Z,31.60
2018-01-25T13:41:28.417Z,32.40
2018-01-25T13:43:56.570Z,32.90
2018-01-25T13:46:24.122Z,31.70
2018-01-25T13:48:52.425Z,32.70
2018-01-25T13:51:19.965Z,32.60
2018-01-25T13:53:47.515Z,32.40
2018-01-25T13:56:15.082Z,32.40
2018-01-25T13:58:42.618Z,33.00
2018-01-25T14:01:10.258Z,33.40
2018-01-25T14:03:37.806Z,33.30
2018-01-25T14:06:05.718Z,33.60
2018-01-25T14:08:33.480Z,33.20
2018-01-25T14:11:01.005Z,33.80
2018-01-25T14:13:28.576Z,33.80
2018-01-25T14:15:56.273Z,33.70
2018-01-25T14:18:23.843Z,34.10
2018-01-25T14:20:51.403Z,33.60
2018-01-25T14:23:19.688Z,34.00
2018-01-25T14:25:47.242Z,33.90
2018-01-25T14:28:14.794Z,34.40
2018-01-25T14:30:43.250Z,33.90
2018-01-25T14:33:12.299Z,34.00
2018-01-25T14:35:41.602Z,34.60
2018-01-25T14:38:09.138Z,34.60
2018-01-25T14:40:36.748Z,35.20
2018-01-25T14:43:05.038Z,36.20
2018-01-25T14:45:32.583Z,36.30
2018-01-25T14:48:00.097Z,36.40
2018-01-25T14:50:27.845Z,36.50
2018-01-25T14:52:55.398Z,36.70
2018-01-25T14:55:23.681Z,35.80
2018-01-25T14:57:51.386Z,35.80
2018-01-25T15:00:18.957Z,35.60
2018-01-25T15:02:46.530Z,35.80
2018-01-25T15:05:14.136Z,36.20
2018-01-25T15:07:42.605Z,36.70
2018-01-25T15:10:11.488Z,37.50
2018-01-25T15:12:39.035Z,37.50
2018-01-25T15:15:06.597Z,37.90
2018-01-25T15:17:34.256Z,37.90
2018-01-25T15:20:01.787Z,38.50
2018-01-25T15:22:29.366Z,38.40
2018-01-25T15:25:02.601Z,38.80
2018-01-25T15:27:33.946Z,39.20
2018-01-25T15:30:01.668Z,38.90
2018-01-25T15:32:29.220Z,39.20
2018-01-25T15:34:58.109Z,39.70
2018-01-25T15:37:25.752Z,39.80
2018-01-25T15:39:53.456Z,40.10
2018-01-25T15:42:21.059Z,40.50
2018-01-25T15:44:48.698Z,40.40
2018-01-25T15:47:16.399Z,40.60
2018-01-25T15:49:43.956Z,40.60
2018-01-25T15:52:11.500Z,40.60
2018-01-25T15:54:39.049Z,41.20
2018-01-25T15:57:07.073Z,41.70
2018-01-25T15:59:34.671Z,40.30
2018-01-25T16:02:02.244Z,39.70
2018-01-25T16:04:30.572Z,39.70
2018-01-25T16:06:58.146Z,39.70
2018-01-25T16:09:25.675Z,40.20
2018-01-25T16:11:53.276Z,40.30
2018-01-25T16:14:20.823Z,40.40
2018-01-25T16:16:48.373Z,40.70
2018-01-25T16:19:15.944Z,40.90
2018-01-25T16:21:43.566Z,41.20
2018-01-25T16:24:11.955Z,41.50
2018-01-25T16:26:39.531Z,41.40
2018-01-25T16:29:08.706Z,42.00
2018-01-25T16:31:37.013Z,42.60
2018-01-25T16:34:04.562Z,42.70
2018-01-25T16:36:32.879Z,43.10
2018-01-25T16:39:00.418Z,43.20
2018-01-25T16:41:27.964Z,43.50
2018-01-25T16:43:56.343Z,43.60
2018-01-25T16:46:23.875Z,43.60
2018-01-25T16:48:51.421Z,44.00
2018-01-25T16:51:19.011Z,44.30
2018-01-25T16:53:47.295Z,44.20
2018-01-25T16:56:14.840Z,44.20
2018-01-25T16:58:42.448Z,44.00
2018-01-25T17:01:10.089Z,44.30
2018-01-25T17:03:38.180Z,44.30
2018-01-25T17:06:05.913Z,44.10
2018-01-25T17:08:33.503Z,43.70
2018-01-25T17:11:01.792Z,43.60
2018-01-25T17:13:29.339Z,43.70
2018-01-25T17:15:56.879Z,43.40
2018-01-25T17:18:25.204Z,43.80
2018-01-25T17:20:52.755Z,43.90
2018-01-25T17:23:21.051Z,44.40
2018-01-25T17:25:48.583Z,44.30
2018-01-25T17:28:16.216Z,44.90
2018-01-25T17:30:43.794Z,44.90
2018-01-25T17:33:12.137Z,45.70
2018-01-25T17:35:39.757Z,45.70
2018-01-25T17:38:08.029Z,46.10
2018-01-25T17:40:35.558Z,46.70
2018-01-25T17:43:03.300Z,47.00
2018-01-25T17:45:30.868Z,47.40
2018-01-25T17:47:58.438Z,48.00
2018-01-25T17:50:26.035Z,48.30
2018-01-25T17:52:53.601Z,48.30
2018-01-25T17:55:21.128Z,48.80
2018-01-25T17:57:48.798Z,49.00
2018-01-25T18:00:16.611Z,49.20
2018-01-25T18:02:44.181Z,49.60
2018-01-25T18:05:11.741Z,49.70
2018-01-25T18:07:39.256Z,49.90
2018-01-25T18:10:06.776Z,50.40
2018-01-25T18:12:35.093Z,51.00
2018-01-25T18:15:02.654Z,51.10
2018-01-25T18:17:31.180Z,51.30
2018-01-25T18:19:58.754Z,51.40
2018-01-25T18:22:26.291Z,51.70
2018-01-25T18:24:53.844Z,51.70
2018-01-25T18:27:21.401Z,52.10
2018-01-25T18:29:48.926Z,52.00
2018-01-25T18:32:16.563Z,52.00
2018-01-25T18:34:44.965Z,51.50
2018-01-25T18:37:12.458Z,51.50
2018-01-25T18:39:39.990Z,51.70
2018-01-25T18:42:07.820Z,52.10
2018-01-25T18:44:36.125Z,52.30
2018-01-25T18:47:03.673Z,52.30
2018-01-25T18:49:31.250Z,52.60
2018-01-25T18:51:58.953Z,52.20
2018-01-25T18:54:26.504Z,52.00
2018-01-25T18:56:54.101Z,52.20
2018-01-25T18:59:21.658Z,52.20
2018-01-25T19:01:49.212Z,52.70
2018-01-25T19:04:16.858Z,52.50
2018-01-25T19:06:44.391Z,52.70
2018-01-25T19:09:11.917Z,53.00
2018-01-25T19:11:39.499Z,53.00
2018-01-25T19:14:07.080Z,53.10
2018-01-25T19:16:35.425Z,53.40
2018-01-25T19:19:03.014Z,53.30
2018-01-25T19:21:31.507Z,53.20
2018-01-25T19:24:00.197Z,53.50
2018-01-25T19:26:27.784Z,54.30
2018-01-25T19:28:56.198Z,53.40
2018-01-25T19:31:24.682Z,53.90
2018-01-25T19:33:52.303Z,53.80
2018-01-25T19:36:20.633Z,55.30
2018-01-25T19:38:49.027Z,55.00
2018-01-25T19:41:16.754Z,55.00
2018-01-25T19:43:44.328Z,55.30
2018-01-25T19:46:11.906Z,54.40
2018-01-25T19:48:40.221Z,55.40
2018-01-25T19:51:07.817Z,55.40
2018-01-25T19:53:35.357Z,54.70
2018-01-25T19:56:02.891Z,55.50
2018-01-25T19:58:30.614Z,55.50
2018-01-25T20:00:58.172Z,55.70
2018-01-25T20:03:26.525Z,56.00
2018-01-25T20:05:54.804Z,55.80
2018-01-25T20:08:22.419Z,55.80
2018-01-25T20:10:50.720Z,55.00
2018-01-25T20:13:18.329Z,55.80
2018-01-25T20:15:45.947Z,55.60
2018-01-25T20:18:13.509Z,56.00
2018-01-25T20:20:41.020Z,56.00
2018-01-25T20:23:08.572Z,56.30
2018-01-25T20:25:36.279Z,56.50
2018-01-25T20:28:03.884Z,56.60
2018-01-25T20:30:31.409Z,56.40
2018-01-25T20:32:58.969Z,56.80
2018-01-25T20:35:26.517Z,56.80
2018-01-25T20:37:54.929Z,57.10
2018-01-25T20:40:23.300Z,57.30
2018-01-25T20:42:50.976Z,57.20
2018-01-25T20:45:18.526Z,57.30
2018-01-25T20:47:46.048Z,57.40
2018-01-25T20:50:14.578Z,57.70
2018-01-25T20:52:42.166Z,57.80
2018-01-25T20:55:09.773Z,57.90
2018-01-25T20:57:37.310Z,57.90
2018-01-25T21:00:05.686Z,57.90
2018-01-25T21:02:33.398Z,57.90
2018-01-25T21:05:00.997Z,58.10
2018-01-25T21:07:28.641Z,58.20
2018-01-25T21:09:56.297Z,58.40
2018-01-25T21:12:24.605Z,58.50
2018-01-25T21:14:52.386Z,58.60
2018-01-25T21:17:20.681Z,58.40
2018-01-25T21:19:48.263Z,58.40
2018-01-25T21:22:15.831Z,58.30
2018-01-25T21:24:44.154Z,58.30
2018-01-25T21:27:12.508Z,58.50
2018-01-25T21:29:40.873Z,58.40
2018-01-25T21:32:09.145Z,58.30
2018-01-25T21:34:36.802Z,58.30
2018-01-25T21:37:04.456Z,58.20
2018-01-25T21:39:32.270Z,58.10
2018-01-25T21:41:59.800Z,58.00
2018-01-25T21:44:27.360Z,58.00
2018-01-25T21:46:55.666Z,58.30
2018-01-25T21:49:23.227Z,58.30
2018-01-25T21:51:50.969Z,58.40
2018-01-25T21:54:18.544Z,58.10
2018-01-25T21:56:46.087Z,58.30
2018-01-25T21:59:13.653Z,58.70
2018-01-25T22:01:41.202Z,58.90
2018-01-25T22:04:08.733Z,59.00
2018-01-25T22:06:36.472Z,58.80
2018-01-25T22:09:04.788Z,58.90
2018-01-25T22:11:32.320Z,58.90
2018-01-25T22:14:01.361Z,58.90
2018-01-25T22:16:28.912Z,58.90
2018-01-25T22:18:56.483Z,58.90
2018-01-25T22:21:24.045Z,58.90
2018-01-25T22:23:52.345Z,58.90
2018-01-25T22:26:20.664Z,59.00
2018-01-25T22:28:49.006Z,58.90
2018-01-25T22:31:17.497Z,59.10
2018-01-25T22:33:45.023Z,59.00
2018-01-25T22:36:13.319Z,59.10
2018-01-25T22:38:40.885Z,59.00
2018-01-25T22:41:08.482Z,59.20
2018-01-25T22:43:36.018Z,59.30
2018-01-25T22:46:04.368Z,59.30
2018-01-25T22:48:31.922Z,59.30
2018-01-25T22:50:59.465Z,59.20
2018-01-25T22:53:27.755Z,59.30
2018-01-25T22:55:55.330Z,59.20
2018-01-25T22:58:23.627Z,59.30
2018-01-25T23:00:51.176Z,59.40
2018-01-25T23:03:18.721Z,59.20
2018-01-25T23:05:46.242Z,59.10
2018-01-25T23:08:14.722Z,58.90
2018-01-25T23:10:43.232Z,59.00
2018-01-25T23:13:10.814Z,59.10
2018-01-25T23:15:39.105Z,58.80
2018-01-25T23:18:07.530Z,58.70
2018-01-25T23:20:35.806Z,58.80
2018-01-25T23:23:03.436Z,58.80
2018-01-25T23:25:30.971Z,58.50
2018-01-25T23:28:00.026Z,58.70
2018-01-25T23:30:27.564Z,58.60
2018-01-25T23:32:55.132Z,58.70
2018-01-25T23:35:23.467Z,58.50
2018-01-25T23:37:51.069Z,58.50
2018-01-25T23:40:18.591Z,58.70
2018-01-25T23:42:46.925Z,58.80
2018-01-25T23:45:14.465Z,58.80
2018-01-25T23:47:42.016Z,58.80
2018-01-25T23:50:09.552Z,58.90
2018-01-25T23:52:37.882Z,59.10
2018-01-25T23:55:06.187Z,58.80
2018-01-25T23:57:33.912Z,58.90
